createdAt,value
2023-05-20T00:01:33.237Z,102634.63
2023-05-20T00:03:59.885Z,102644.31
2023-05-20T00:06:26.684Z,102640.88
2023-05-20T00:08:53.176Z,102638.44
2023-05-20T00:11:19.835Z,102635.94
2023-05-20T00:13:46.366Z,102634.25
2023-05-20T00:16:12.944Z,102635.22
2023-05-20T00:18:39.465Z,102643.91
2023-05-20T00:21:06.347Z,102640.44
2023-05-20T00:23:32.854Z,102638.00
2023-05-20T00:26:00.884Z,102641.69
2023-05-20T00:28:27.592Z,102640.03
2023-05-20T00:30:54.873Z,102641.97
2023-05-20T00:33:21.469Z,102637.69
2023-05-20T00:35:48.066Z,102643.00
2023-05-20T00:38:14.595Z,102640.41
2023-05-20T00:40:41.065Z,102643.88
2023-05-20T00:43:07.558Z,102628.25
2023-05-20T00:45:34.368Z,102637.00
2023-05-20T00:48:04.127Z,102630.97
2023-05-20T00:50:31.893Z,102629.31
2023-05-20T00:52:58.854Z,102630.31
2023-05-20T00:55:25.848Z,102625.31
2023-05-20T00:57:53.272Z,102634.97
2023-05-20T01:00:19.906Z,102624.53
2023-05-20T01:02:46.688Z,102625.38
2023-05-20T01:05:13.285Z,102620.19
2023-05-20T01:07:39.996Z,102623.72
2023-05-20T01:10:07.278Z,102622.97
2023-05-20T01:12:43.919Z,102619.53
2023-05-20T01:15:15.996Z,102626.59
2023-05-20T01:17:52.433Z,102614.47
2023-05-20T01:20:20.693Z,102608.44
2023-05-20T01:22:54.937Z,102603.38
2023-05-20T01:25:21.700Z,102606.00
2023-05-20T01:27:49.383Z,102604.47
2023-05-20T01:30:16.343Z,102608.16
2023-05-20T01:32:52.612Z,102607.41
2023-05-20T01:35:21.654Z,102600.47
2023-05-20T01:37:48.637Z,102594.53
2023-05-20T01:40:16.867Z,102594.59
2023-05-20T01:42:44.348Z,102594.63
2023-05-20T01:45:11.239Z,102591.22
2023-05-20T01:47:37.836Z,102586.84
2023-05-20T01:50:04.749Z,102587.78
2023-05-20T01:52:31.894Z,102592.22
2023-05-20T01:54:58.393Z,102587.91
2023-05-20T01:57:24.861Z,102600.28
2023-05-20T01:59:51.398Z,102587.34
2023-05-20T02:02:18.082Z,102581.22
2023-05-20T02:04:51.557Z,102589.16
2023-05-20T02:07:19.311Z,102592.69
2023-05-20T02:09:46.759Z,102590.09
2023-05-20T02:12:17.031Z,102590.25
2023-05-20T02:14:47.648Z,102594.72
2023-05-20T02:17:17.313Z,102590.41
2023-05-20T02:19:44.936Z,102587.06
2023-05-20T02:22:11.937Z,102588.78
2023-05-20T02:24:38.686Z,102588.94
2023-05-20T02:27:06.416Z,102592.50
2023-05-20T02:29:33.090Z,102590.78
2023-05-20T02:31:59.844Z,102594.41
2023-05-20T02:34:28.045Z,102598.81
2023-05-20T02:36:54.568Z,102590.19
2023-05-20T02:39:21.047Z,102588.63
2023-05-20T02:41:47.594Z,102583.53
2023-05-20T02:44:14.679Z,102581.88
2023-05-20T02:46:41.375Z,102581.91
2023-05-20T02:49:07.849Z,102581.09
2023-05-20T02:51:34.341Z,102577.66
2023-05-20T02:54:00.952Z,102576.84
2023-05-20T02:56:28.661Z,102576.97
2023-05-20T02:58:55.216Z,102566.63
2023-05-20T03:01:22.038Z,102569.34
2023-05-20T03:03:48.847Z,102574.66
2023-05-20T03:06:15.337Z,102571.34
2023-05-20T03:08:42.841Z,102581.72
2023-05-20T03:11:09.477Z,102572.13
2023-05-20T03:13:36.234Z,102583.56
2023-05-20T03:16:03.120Z,102581.03
2023-05-20T03:18:29.661Z,102581.97
2023-05-20T03:20:56.331Z,102585.47
2023-05-20T03:23:22.864Z,102581.22
2023-05-20T03:25:49.412Z,102583.81
2023-05-20T03:28:16.131Z,102578.75
2023-05-20T03:30:42.766Z,102586.56
2023-05-20T03:33:09.267Z,102584.72
2023-05-20T03:35:36.014Z,102587.31
2023-05-20T03:38:02.956Z,102578.53
2023-05-20T03:40:29.477Z,102582.88
2023-05-20T03:42:56.071Z,102584.66
2023-05-20T03:45:22.650Z,102576.91
2023-05-20T03:47:49.174Z,102582.97
2023-05-20T03:50:15.938Z,102582.03
2023-05-20T03:52:42.448Z,102582.13
2023-05-20T03:55:09.418Z,102581.28
2023-05-20T03:57:36.629Z,102576.13
2023-05-20T04:00:12.048Z,102579.53
2023-05-20T04:02:39.011Z,102577.84
2023-05-20T04:05:08.742Z,102581.22
2023-05-20T04:07:35.886Z,102570.78
2023-05-20T04:10:04.157Z,102580.28
2023-05-20T04:12:32.230Z,102575.03
2023-05-20T04:15:02.462Z,102574.06
2023-05-20T04:17:32.441Z,102569.75
2023-05-20T04:20:01.761Z,102570.53
2023-05-20T04:22:28.230Z,102573.97
2023-05-20T04:24:54.773Z,102576.50
2023-05-20T04:27:21.695Z,102581.69
2023-05-20T04:29:48.533Z,102572.94
2023-05-20T04:32:19.629Z,102580.69
2023-05-20T04:34:46.899Z,102578.84
2023-05-20T04:37:14.008Z,102583.16
2023-05-20T04:39:40.495Z,102578.78
2023-05-20T04:42:07.042Z,102583.91
2023-05-20T04:44:34.408Z,102588.97
2023-05-20T04:47:00.892Z,102588.88
2023-05-20T04:49:29.160Z,102596.69
2023-05-20T04:51:55.701Z,102593.06
2023-05-20T04:54:22.212Z,102592.81
2023-05-20T04:56:50.997Z,102589.13
2023-05-20T04:59:17.765Z,102586.38
2023-05-20T05:01:44.403Z,102580.16
2023-05-20T05:04:10.933Z,102585.19
2023-05-20T05:06:37.673Z,102577.38
2023-05-20T05:09:04.810Z,102581.53
2023-05-20T05:11:31.374Z,102580.41
2023-05-20T05:13:57.851Z,102570.63
2023-05-20T05:16:24.376Z,102569.72
2023-05-20T05:18:50.940Z,102572.13
2023-05-20T05:21:17.698Z,102568.47
2023-05-20T05:23:44.145Z,102571.63
2023-05-20T05:26:10.816Z,102562.81
2023-05-20T05:28:37.484Z,102566.06
2023-05-20T05:31:04.190Z,102565.84
2023-05-20T05:33:30.807Z,102569.97
2023-05-20T05:35:59.229Z,102560.22
2023-05-20T05:38:26.034Z,102564.06
2023-05-20T05:40:53.135Z,102560.25
2023-05-20T05:43:19.723Z,102558.72
2023-05-20T05:45:46.299Z,102560.50
2023-05-20T05:48:12.869Z,102550.47
2023-05-20T05:50:39.406Z,102553.59
2023-05-20T05:53:06.068Z,102556.97
2023-05-20T05:55:33.409Z,102559.59
2023-05-20T05:58:00.018Z,102545.09
2023-05-20T06:00:26.463Z,102548.44
2023-05-20T06:02:53.224Z,102545.09
2023-05-20T06:05:19.854Z,102535.63
2023-05-20T06:07:46.568Z,102536.91
2023-05-20T06:10:13.151Z,102534.59
2023-05-20T06:12:39.690Z,102537.00
2023-05-20T06:15:07.392Z,102547.13
2023-05-20T06:17:33.914Z,102550.44
2023-05-20T06:20:00.555Z,102544.13
2023-05-20T06:22:27.012Z,102552.25
2023-05-20T06:24:56.497Z,102539.94
2023-05-20T06:27:23.120Z,102544.31
2023-05-20T06:29:49.623Z,102549.44
2023-05-20T06:32:16.228Z,102552.19
2023-05-20T06:34:43.096Z,102557.03
2023-05-20T06:37:09.616Z,102540.38
2023-05-20T06:39:36.200Z,102543.84
2023-05-20T06:42:03.128Z,102545.25
2023-05-20T06:44:31.340Z,102543.34
2023-05-20T06:46:57.828Z,102538.69
2023-05-20T06:49:24.827Z,102541.63
2023-05-20T06:51:51.345Z,102535.94
2023-05-20T06:54:17.822Z,102541.53
2023-05-20T06:56:44.625Z,102533.22
2023-05-20T06:59:11.403Z,102526.78
2023-05-20T07:01:37.870Z,102526.72
2023-05-20T07:04:04.654Z,102523.34
2023-05-20T07:06:31.632Z,102528.94
2023-05-20T07:08:58.182Z,102525.38
2023-05-20T07:11:24.742Z,102528.75
2023-05-20T07:13:51.285Z,102523.03
2023-05-20T07:16:17.890Z,102515.66
2023-05-20T07:18:44.557Z,102515.38
2023-05-20T07:21:11.132Z,102513.00
2023-05-20T07:23:37.612Z,102507.31
2023-05-20T07:26:04.247Z,102505.16
2023-05-20T07:28:30.886Z,102508.00
2023-05-20T07:30:58.062Z,102503.16
2023-05-20T07:33:24.810Z,102503.72
2023-05-20T07:35:52.027Z,102494.91
2023-05-20T07:38:18.540Z,102491.97
2023-05-20T07:40:45.401Z,102487.25
2023-05-20T07:43:11.924Z,102489.03
2023-05-20T07:45:38.548Z,102488.47
2023-05-20T07:48:05.758Z,102487.59
2023-05-20T07:50:32.406Z,102487.97
2023-05-20T07:52:58.883Z,102495.47
2023-05-20T07:55:25.670Z,102480.38
2023-05-20T07:57:52.519Z,102479.34
2023-05-20T08:00:19.526Z,102476.91
2023-05-20T08:02:46.428Z,102472.25
2023-05-20T08:05:13.213Z,102462.56
2023-05-20T08:07:39.731Z,102471.06
2023-05-20T08:10:06.999Z,102462.00
2023-05-20T08:12:33.484Z,102455.22
2023-05-20T08:15:00.083Z,102460.75
2023-05-20T08:17:26.625Z,102462.34
2023-05-20T08:19:53.190Z,102459.09
2023-05-20T08:22:19.665Z,102458.09
2023-05-20T08:24:46.543Z,102466.41
2023-05-20T08:27:13.019Z,102474.97
2023-05-20T08:29:39.530Z,102459.66
2023-05-20T08:32:06.520Z,102475.97
2023-05-20T08:34:33.017Z,102469.00
2023-05-20T08:36:59.589Z,102455.91
2023-05-20T08:39:27.297Z,102459.22
2023-05-20T08:41:54.011Z,102453.59
2023-05-20T08:44:22.802Z,102449.41
2023-05-20T08:46:50.362Z,102442.81
2023-05-20T08:49:17.137Z,102443.50
2023-05-20T08:51:44.001Z,102445.81
2023-05-20T08:54:12.036Z,102437.78
2023-05-20T08:56:39.360Z,102436.00
2023-05-20T08:59:06.638Z,102434.13
2023-05-20T09:01:40.218Z,102430.00
2023-05-20T09:04:07.926Z,102440.00
2023-05-20T09:06:46.077Z,102431.53
2023-05-20T09:09:13.500Z,102425.84
2023-05-20T09:11:42.727Z,102435.84
2023-05-20T09:14:09.424Z,102430.31
2023-05-20T09:16:35.996Z,102434.16
2023-05-20T09:19:02.585Z,102430.66
2023-05-20T09:21:29.894Z,102427.44
2023-05-20T09:23:59.954Z,102428.56
2023-05-20T09:26:28.788Z,102429.50
2023-05-20T09:28:59.368Z,102422.25
2023-05-20T09:31:28.054Z,102415.44
2023-05-20T09:33:55.923Z,102410.44
2023-05-20T09:36:28.949Z,102415.16
2023-05-20T09:39:00.545Z,102401.97
2023-05-20T09:41:34.031Z,102404.47
2023-05-20T09:44:00.883Z,102410.03
2023-05-20T09:46:28.059Z,102393.47
2023-05-20T09:48:54.885Z,102397.22
2023-05-20T09:51:24.053Z,102404.19
2023-05-20T09:53:52.270Z,102393.63
2023-05-20T09:56:22.055Z,102395.25
2023-05-20T09:58:50.160Z,102387.25
2023-05-20T10:01:17.135Z,102381.16
2023-05-20T10:03:45.277Z,102389.31
2023-05-20T10:06:36.413Z,102385.41
2023-05-20T10:09:21.877Z,102384.38
2023-05-20T10:12:09.567Z,102387.31
2023-05-20T10:15:04.405Z,102373.81
2023-05-20T10:17:55.353Z,102386.91
2023-05-20T10:20:22.089Z,102371.41
2023-05-20T10:22:58.145Z,102374.03
2023-05-20T10:25:27.217Z,102368.66
2023-05-20T10:28:10.665Z,102365.03
2023-05-20T10:30:37.289Z,102372.94
2023-05-20T10:33:06.967Z,102360.44
2023-05-20T10:35:33.890Z,102357.75
2023-05-20T10:38:13.430Z,102355.41
2023-05-20T10:40:40.814Z,102357.31
2023-05-20T10:43:15.450Z,102347.59
2023-05-20T10:45:50.613Z,102338.59
2023-05-20T10:48:24.418Z,102342.22
2023-05-20T10:50:54.245Z,102335.88
2023-05-20T10:53:32.811Z,102339.13
2023-05-20T10:56:00.328Z,102349.97
2023-05-20T10:58:26.850Z,102336.63
2023-05-20T11:00:54.936Z,102337.03
2023-05-20T11:03:22.798Z,102326.13
2023-05-20T11:05:51.160Z,102325.53
2023-05-20T11:08:28.540Z,102331.19
2023-05-20T11:10:59.192Z,102319.56
2023-05-20T11:13:26.359Z,102334.09
2023-05-20T11:15:53.358Z,102324.53
2023-05-20T11:18:19.908Z,102318.97
2023-05-20T11:20:47.351Z,102326.38
2023-05-20T11:23:17.517Z,102316.31
2023-05-20T11:25:44.110Z,102312.13
2023-05-20T11:28:14.578Z,102308.78
2023-05-20T11:30:42.749Z,102308.09
2023-05-20T11:33:12.829Z,102316.44
2023-05-20T11:35:51.780Z,102308.03
2023-05-20T11:38:19.510Z,102302.00
2023-05-20T11:40:51.284Z,102299.56
2023-05-20T11:43:18.717Z,102298.44
2023-05-20T11:45:47.166Z,102288.59
2023-05-20T11:48:15.782Z,102308.38
2023-05-20T11:50:44.271Z,102302.50
2023-05-20T11:53:21.475Z,102303.22
2023-05-20T11:55:47.998Z,102294.09
2023-05-20T11:58:22.294Z,102284.19
2023-05-20T12:00:53.220Z,102281.44
2023-05-20T12:03:23.823Z,102265.44
2023-05-20T12:05:51.302Z,102272.94
2023-05-20T12:08:18.144Z,102274.13
2023-05-20T12:10:47.601Z,102278.13
2023-05-20T12:13:14.122Z,102261.72
2023-05-20T12:15:40.931Z,102265.66
2023-05-20T12:18:07.769Z,102262.13
2023-05-20T12:20:34.794Z,102265.25
2023-05-20T12:23:02.037Z,102262.31
2023-05-20T12:25:29.328Z,102265.72
2023-05-20T12:27:56.424Z,102262.22
2023-05-20T12:30:24.222Z,102254.41
2023-05-20T12:32:52.040Z,102256.28
2023-05-20T12:35:26.967Z,102253.84
2023-05-20T12:37:53.829Z,102273.84
2023-05-20T12:40:20.672Z,102269.63
2023-05-20T12:42:47.152Z,102263.47
2023-05-20T12:45:13.634Z,102266.72
2023-05-20T12:47:40.293Z,102257.06
2023-05-20T12:50:07.119Z,102249.22
2023-05-20T12:52:34.566Z,102256.34
2023-05-20T12:55:01.164Z,102244.66
2023-05-20T12:57:27.969Z,102240.66
2023-05-20T12:59:54.569Z,102243.09
2023-05-20T13:02:21.312Z,102243.19
2023-05-20T13:04:48.792Z,102240.44
2023-05-20T13:07:15.614Z,102242.13
2023-05-20T13:09:42.118Z,102250.69
2023-05-20T13:12:09.099Z,102245.16
2023-05-20T13:14:35.684Z,102244.50
2023-05-20T13:17:02.442Z,102241.50
2023-05-20T13:19:29.032Z,102231.25
2023-05-20T13:21:55.682Z,102229.28
2023-05-20T13:24:22.638Z,102217.44
2023-05-20T13:26:49.247Z,102233.09
2023-05-20T13:29:16.194Z,102218.34
2023-05-20T13:31:42.696Z,102222.13
2023-05-20T13:34:09.386Z,102226.97
2023-05-20T13:36:37.654Z,102219.59
2023-05-20T13:39:04.226Z,102217.19
2023-05-20T13:41:30.819Z,102223.56
2023-05-20T13:43:57.391Z,102214.03
2023-05-20T13:46:23.922Z,102207.75
2023-05-20T13:48:51.376Z,102197.03
2023-05-20T13:51:18.010Z,102204.56
2023-05-20T13:53:44.500Z,102200.50
2023-05-20T13:56:11.165Z,102197.84
2023-05-20T13:58:38.130Z,102195.25
2023-05-20T14:01:05.500Z,102196.16
2023-05-20T14:03:37.422Z,102185.91
2023-05-20T14:06:04.326Z,102188.34
2023-05-20T14:08:30.832Z,102182.47
2023-05-20T14:10:59.616Z,102179.94
2023-05-20T14:13:26.352Z,102173.88
2023-05-20T14:15:54.730Z,102163.97
2023-05-20T14:18:21.679Z,102164.97
2023-05-20T14:20:48.233Z,102169.03
2023-05-20T14:23:14.792Z,102164.22
2023-05-20T14:25:41.372Z,102154.59
2023-05-20T14:28:07.864Z,102161.97
2023-05-20T14:30:34.828Z,102149.25
2023-05-20T14:33:01.701Z,102152.41
2023-05-20T14:35:28.197Z,102156.16
2023-05-20T14:37:54.741Z,102158.22
2023-05-20T14:40:21.344Z,102156.06
2023-05-20T14:42:47.885Z,102155.06
2023-05-20T14:45:14.443Z,102149.25
2023-05-20T14:47:41.064Z,102135.72
2023-05-20T14:50:08.182Z,102145.38
2023-05-20T14:52:34.722Z,102143.31
2023-05-20T14:55:01.249Z,102147.84
2023-05-20T14:57:27.736Z,102145.28
2023-05-20T14:59:54.258Z,102137.56
2023-05-20T15:02:20.938Z,102133.09
2023-05-20T15:04:51.709Z,102129.84
2023-05-20T15:07:18.244Z,102125.19
2023-05-20T15:09:44.831Z,102120.13
2023-05-20T15:12:11.526Z,102123.03
2023-05-20T15:14:38.159Z,102123.78
2023-05-20T15:17:05.084Z,102127.97
2023-05-20T15:19:32.599Z,102127.72
2023-05-20T15:21:59.895Z,102132.19
2023-05-20T15:24:26.431Z,102124.88
2023-05-20T15:26:57.249Z,102122.81
2023-05-20T15:29:23.802Z,102121.97
2023-05-20T15:31:50.389Z,102108.56
2023-05-20T15:34:18.090Z,102123.63
2023-05-20T15:36:44.630Z,102116.38
2023-05-20T15:39:11.215Z,102107.59
2023-05-20T15:41:39.890Z,102106.75
2023-05-20T15:44:07.059Z,102109.78
2023-05-20T15:46:33.714Z,102111.13
2023-05-20T15:49:00.235Z,102113.63
2023-05-20T15:51:26.697Z,102113.28
2023-05-20T15:53:53.190Z,102117.38
2023-05-20T15:56:19.818Z,102113.78
2023-05-20T15:58:48.918Z,102112.22
2023-05-20T16:01:15.617Z,102107.88
2023-05-20T16:03:43.820Z,102113.41
2023-05-20T16:06:11.826Z,102106.78
2023-05-20T16:08:38.573Z,102097.31
2023-05-20T16:11:05.491Z,102089.72
2023-05-20T16:13:31.959Z,102103.91
2023-05-20T16:15:59.038Z,102087.31
2023-05-20T16:18:30.887Z,102090.06
2023-05-20T16:20:57.638Z,102091.16
2023-05-20T16:23:24.796Z,102087.53
2023-05-20T16:25:51.512Z,102093.44
2023-05-20T16:28:18.155Z,102086.91
2023-05-20T16:30:44.807Z,102082.13
2023-05-20T16:33:13.203Z,102074.63
2023-05-20T16:35:40.401Z,102077.16
2023-05-20T16:38:07.084Z,102079.31
2023-05-20T16:40:34.276Z,102071.25
2023-05-20T16:43:01.256Z,102076.66
2023-05-20T16:45:27.785Z,102078.34
2023-05-20T16:47:58.354Z,102079.56
2023-05-20T16:50:24.886Z,102070.66
2023-05-20T16:52:51.471Z,102081.72
2023-05-20T16:55:17.981Z,102070.03
2023-05-20T16:57:44.514Z,102077.72
2023-05-20T17:00:11.638Z,102074.25
2023-05-20T17:02:38.239Z,102079.06
2023-05-20T17:05:05.145Z,102076.78
2023-05-20T17:07:33.376Z,102079.06
2023-05-20T17:10:02.809Z,102078.94
2023-05-20T17:12:29.388Z,102083.28
2023-05-20T17:14:55.919Z,102083.19
2023-05-20T17:17:22.678Z,102091.50
2023-05-20T17:19:49.151Z,102078.59
2023-05-20T17:22:15.739Z,102089.13
2023-05-20T17:24:42.206Z,102081.16
2023-05-20T17:27:08.808Z,102085.38
2023-05-20T17:29:35.492Z,102088.97
2023-05-20T17:32:04.589Z,102089.22
2023-05-20T17:34:31.197Z,102092.72
2023-05-20T17:36:57.691Z,102097.66
2023-05-20T17:39:24.165Z,102093.44
2023-05-20T17:41:50.605Z,102093.66
2023-05-20T17:44:18.163Z,102094.13
2023-05-20T17:46:44.650Z,102092.88
2023-05-20T17:49:11.276Z,102097.81
2023-05-20T17:51:37.838Z,102096.38
2023-05-20T17:54:04.313Z,102100.09
2023-05-20T17:56:31.827Z,102106.44
2023-05-20T17:58:58.280Z,102108.84
2023-05-20T18:01:24.869Z,102117.00
2023-05-20T18:03:51.522Z,102119.03
2023-05-20T18:06:18.299Z,102122.00
2023-05-20T18:08:44.948Z,102130.66
2023-05-20T18:11:11.615Z,102122.94
2023-05-20T18:13:38.116Z,102126.13
2023-05-20T18:16:05.167Z,102130.59
2023-05-20T18:18:31.660Z,102125.44
2023-05-20T18:21:00.496Z,102130.72
2023-05-20T18:23:26.971Z,102124.06
2023-05-20T18:25:53.410Z,102132.13
2023-05-20T18:28:19.857Z,102129.81
2023-05-20T18:30:46.498Z,102141.47
2023-05-20T18:33:15.165Z,102138.69
2023-05-20T18:35:41.665Z,102132.78
2023-05-20T18:38:08.187Z,102139.06
2023-05-20T18:40:34.846Z,102138.00
2023-05-20T18:43:01.467Z,102146.25
2023-05-20T18:45:28.002Z,102136.00
2023-05-20T18:47:54.785Z,102141.72
2023-05-20T18:50:21.426Z,102142.69
2023-05-20T18:52:47.973Z,102141.31
2023-05-20T18:55:18.350Z,102135.63
2023-05-20T18:57:44.896Z,102134.25
2023-05-20T19:00:12.398Z,102130.91
2023-05-20T19:02:40.618Z,102129.22
2023-05-20T19:05:11.763Z,102125.00
2023-05-20T19:07:41.742Z,102125.31
2023-05-20T19:10:08.795Z,102125.84
2023-05-20T19:12:35.376Z,102124.06
2023-05-20T19:15:02.479Z,102127.13
2023-05-20T19:17:29.390Z,102123.97
2023-05-20T19:19:55.952Z,102126.81
2023-05-20T19:22:22.512Z,102135.06
2023-05-20T19:24:48.977Z,102135.50
2023-05-20T19:27:15.478Z,102137.72
2023-05-20T19:29:41.975Z,102143.19
2023-05-20T19:32:08.462Z,102145.38
2023-05-20T19:34:35.020Z,102151.63
2023-05-20T19:37:01.561Z,102162.38
2023-05-20T19:39:28.826Z,102167.13
2023-05-20T19:41:56.553Z,102167.25
2023-05-20T19:44:23.296Z,102167.31
2023-05-20T19:46:49.756Z,102162.44
2023-05-20T19:49:16.332Z,102161.81
2023-05-20T19:51:42.860Z,102162.03
2023-05-20T19:54:10.087Z,102162.34
2023-05-20T19:56:36.571Z,102154.63
2023-05-20T19:59:03.852Z,102151.47
2023-05-20T20:01:32.031Z,102152.81
2023-05-20T20:03:58.565Z,102149.06
2023-05-20T20:06:25.066Z,102155.50
2023-05-20T20:08:51.687Z,102152.53
2023-05-20T20:11:18.171Z,102151.13
2023-05-20T20:13:44.668Z,102148.88
2023-05-20T20:16:11.583Z,102162.38
2023-05-20T20:18:38.183Z,102157.41
2023-05-20T20:21:05.660Z,102150.63
2023-05-20T20:23:32.875Z,102157.00
2023-05-20T20:25:59.398Z,102153.72
2023-05-20T20:28:26.254Z,102152.13
2023-05-20T20:30:52.822Z,102159.19
2023-05-20T20:33:19.558Z,102152.97
2023-05-20T20:35:49.768Z,102156.66
2023-05-20T20:38:18.054Z,102159.50
2023-05-20T20:40:44.821Z,102151.84
2023-05-20T20:43:19.815Z,102152.06
2023-05-20T20:45:47.719Z,102152.06
2023-05-20T20:48:20.577Z,102147.53
2023-05-20T20:50:48.018Z,102147.47
2023-05-20T20:53:18.218Z,102151.03
2023-05-20T20:55:46.289Z,102153.66
2023-05-20T20:58:14.629Z,102156.41
2023-05-20T21:00:42.411Z,102156.28
2023-05-20T21:03:09.010Z,102146.59
2023-05-20T21:05:39.128Z,102154.41
2023-05-20T21:08:08.130Z,102149.34
2023-05-20T21:10:36.872Z,102145.03
2023-05-20T21:13:03.684Z,102145.03
2023-05-20T21:15:30.251Z,102144.06
2023-05-20T21:17:56.865Z,102147.00
2023-05-20T21:20:23.440Z,102145.47
2023-05-20T21:22:49.940Z,102141.94
2023-05-20T21:25:16.766Z,102147.38
2023-05-20T21:27:43.248Z,102139.47
2023-05-20T21:30:11.285Z,102148.31
2023-05-20T21:32:38.429Z,102141.28
2023-05-20T21:35:05.440Z,102137.88
2023-05-20T21:37:32.078Z,102141.53
2023-05-20T21:39:58.598Z,102132.78
2023-05-20T21:42:25.189Z,102132.78
2023-05-20T21:44:51.650Z,102121.59
2023-05-20T21:47:19.666Z,102132.34
2023-05-20T21:49:47.975Z,102122.84
2023-05-20T21:52:14.753Z,102116.84
2023-05-20T21:54:41.721Z,102117.88
2023-05-20T21:57:08.245Z,102115.34
2023-05-20T21:59:34.828Z,102106.75
2023-05-20T22:02:01.417Z,102113.94
2023-05-20T22:04:28.647Z,102100.94
2023-05-20T22:06:56.207Z,102094.38
2023-05-20T22:09:22.731Z,102102.66
2023-05-20T22:11:49.715Z,102101.16
2023-05-20T22:14:16.933Z,102107.34
2023-05-20T22:16:46.535Z,102097.75
2023-05-20T22:19:17.420Z,102102.84
2023-05-20T22:24:14.635Z,102098.78
2023-05-20T22:26:41.178Z,102091.00
2023-05-20T22:29:08.014Z,102090.22
2023-05-20T22:31:34.583Z,102087.72
2023-05-20T22:34:01.168Z,102074.72
2023-05-20T22:36:28.109Z,102078.50
2023-05-20T22:38:54.530Z,102070.59
2023-05-20T22:41:21.736Z,102075.03
2023-05-20T22:43:48.320Z,102077.44
2023-05-20T22:46:14.942Z,102075.03
2023-05-20T22:48:41.730Z,102072.56
2023-05-20T22:51:08.959Z,102078.69
2023-05-20T22:53:35.639Z,102073.41
2023-05-20T22:56:02.349Z,102077.06
2023-05-20T22:58:29.712Z,102081.53
2023-05-20T23:00:56.543Z,102076.38
2023-05-20T23:03:23.117Z,102076.50
2023-05-20T23:05:49.560Z,102081.00
2023-05-20T23:08:16.199Z,102077.41
2023-05-20T23:10:42.652Z,102079.31
2023-05-20T23:13:09.103Z,102073.16
2023-05-20T23:15:35.773Z,102071.50
2023-05-20T23:18:03.312Z,102075.16
2023-05-20T23:20:29.845Z,102066.53
2023-05-20T23:22:56.370Z,102070.00
2023-05-20T23:25:24.393Z,102062.09
2023-05-20T23:27:51.008Z,102060.50
2023-05-20T23:30:19.110Z,102060.50
2023-05-20T23:32:45.700Z,102060.59
2023-05-20T23:35:13.089Z,102059.75
2023-05-20T23:37:40.895Z,102058.88
2023-05-20T23:40:09.158Z,102059.06
2023-05-20T23:42:41.840Z,102056.53
2023-05-20T23:45:08.861Z,102055.88
2023-05-20T23:47:36.523Z,102050.72
2023-05-20T23:50:04.031Z,102051.75
2023-05-20T23:52:30.544Z,102043.03
2023-05-20T23:54:58.603Z,102050.03
2023-05-20T23:57:25.332Z,102049.50
2023-05-20T23:59:52.192Z,102048.66
